createdAt,value
2022-08-24T00:02:02.757Z,21.20
2022-08-24T00:04:32.500Z,21.20
2022-08-24T00:07:02.424Z,21.20
2022-08-24T00:09:32.648Z,21.17
2022-08-24T00:12:01.125Z,21.16
2022-08-24T00:14:29.409Z,21.15
2022-08-24T00:16:58.606Z,21.11
2022-08-24T00:19:28.175Z,21.13
2022-08-24T00:21:56.425Z,21.14
2022-08-24T00:24:24.789Z,21.14
2022-08-24T00:26:54.226Z,21.16
2022-08-24T00:29:23.625Z,21.07
2022-08-24T00:31:51.969Z,21.06
2022-08-24T00:34:20.550Z,21.02
2022-08-24T00:36:48.884Z,21.01
2022-08-24T00:39:18.009Z,20.99
2022-08-24T00:41:48.535Z,20.99
2022-08-24T00:44:18.225Z,20.93
2022-08-24T00:46:57.024Z,20.93
2022-08-24T00:49:51.543Z,20.73
2022-08-24T00:52:34.747Z,20.62
2022-08-24T00:55:17.473Z,20.53
2022-08-24T00:57:49.489Z,20.39
2022-08-24T01:00:22.578Z,20.30
2022-08-24T01:02:55.378Z,20.27
2022-08-24T01:05:23.645Z,20.32
2022-08-24T01:07:52.249Z,20.38
2022-08-24T01:10:25.176Z,20.43
2022-08-24T01:13:00.956Z,20.48
2022-08-24T01:15:39.917Z,20.52
2022-08-24T01:18:31.811Z,20.58
2022-08-24T01:21:23.381Z,20.60
2022-08-24T01:23:55.901Z,20.56
2022-08-24T01:26:27.928Z,20.57
2022-08-24T01:29:00.257Z,20.56
2022-08-24T01:31:28.629Z,20.46
2022-08-24T01:33:57.416Z,20.20
2022-08-24T01:36:51.133Z,19.99
2022-08-24T01:39:30.107Z,19.91
2022-08-24T01:41:59.477Z,19.83
2022-08-24T01:44:34.582Z,19.82
2022-08-24T01:47:06.495Z,19.84
2022-08-24T01:49:41.590Z,19.74
2022-08-24T01:52:13.989Z,19.68
2022-08-24T01:54:43.556Z,19.58
2022-08-24T01:57:14.964Z,19.63
2022-08-24T01:59:45.279Z,19.64
2022-08-24T02:02:19.771Z,19.73
2022-08-24T02:04:48.139Z,19.81
2022-08-24T02:07:17.160Z,19.85
2022-08-24T02:09:45.548Z,19.82
2022-08-24T02:12:16.369Z,19.77
2022-08-24T02:14:44.995Z,19.80
2022-08-24T02:17:13.362Z,19.79
2022-08-24T02:19:41.673Z,19.75
2022-08-24T02:22:10.669Z,19.75
2022-08-24T02:24:40.422Z,19.68
2022-08-24T02:27:08.660Z,19.67
2022-08-24T02:29:37.067Z,19.63
2022-08-24T02:32:07.080Z,19.62
2022-08-24T02:34:35.354Z,19.58
2022-08-24T02:37:04.090Z,19.55
2022-08-24T02:39:32.295Z,19.56
2022-08-24T02:42:05.444Z,19.55
2022-08-24T02:44:33.805Z,19.54
2022-08-24T02:47:01.983Z,19.53
2022-08-24T02:49:32.963Z,19.54
2022-08-24T02:52:03.184Z,19.59
2022-08-24T02:54:35.959Z,19.59
2022-08-24T02:57:04.368Z,19.59
2022-08-24T02:59:32.776Z,19.56
2022-08-24T03:02:01.235Z,19.56
2022-08-24T03:04:29.543Z,19.64
2022-08-24T03:06:58.613Z,19.75
2022-08-24T03:09:28.969Z,19.80
2022-08-24T03:11:58.593Z,19.87
2022-08-24T03:14:26.769Z,19.83
2022-08-24T03:16:55.823Z,19.71
2022-08-24T03:19:24.079Z,19.65
2022-08-24T03:21:54.226Z,19.48
2022-08-24T03:24:23.448Z,19.42
2022-08-24T03:26:51.924Z,19.41
2022-08-24T03:29:20.504Z,19.39
2022-08-24T03:31:52.619Z,19.37
2022-08-24T03:34:21.211Z,19.40
2022-08-24T03:36:49.907Z,19.44
2022-08-24T03:39:18.477Z,19.45
2022-08-24T03:41:52.577Z,19.44
2022-08-24T03:44:23.412Z,19.42
2022-08-24T03:46:53.264Z,19.49
2022-08-24T03:49:23.692Z,19.49
2022-08-24T03:51:52.993Z,19.40
2022-08-24T03:54:24.167Z,19.30
2022-08-24T03:56:52.645Z,19.23
2022-08-24T03:59:21.207Z,19.12
2022-08-24T04:01:56.007Z,19.02
2022-08-24T04:04:25.280Z,18.98
2022-08-24T04:06:53.956Z,18.97
2022-08-24T04:09:23.606Z,19.05
2022-08-24T04:11:52.216Z,19.04
2022-08-24T04:14:27.468Z,19.04
2022-08-24T04:17:22.077Z,18.97
2022-08-24T04:20:03.332Z,18.95
2022-08-24T04:22:36.778Z,18.92
2022-08-24T04:25:09.335Z,18.85
2022-08-24T04:27:41.102Z,18.82
2022-08-24T04:30:14.044Z,18.76
2022-08-24T04:32:59.629Z,18.68
2022-08-24T04:35:27.943Z,18.73
2022-08-24T04:37:56.511Z,18.75
2022-08-24T04:40:24.755Z,18.73
2022-08-24T04:42:53.889Z,18.71
2022-08-24T04:45:22.279Z,18.73
2022-08-24T04:47:53.237Z,18.74
2022-08-24T04:50:23.096Z,18.85
2022-08-24T04:52:53.052Z,18.93
2022-08-24T04:55:21.587Z,19.00
2022-08-24T04:57:50.856Z,19.04
2022-08-24T05:00:19.347Z,19.11
2022-08-24T05:02:47.795Z,19.17
2022-08-24T05:05:16.320Z,19.23
2022-08-24T05:07:45.104Z,19.35
2022-08-24T05:10:15.399Z,19.39
2022-08-24T05:12:45.316Z,19.42
2022-08-24T05:15:14.209Z,19.38
2022-08-24T05:17:51.152Z,19.39
2022-08-24T05:20:20.444Z,19.44
2022-08-24T05:22:55.499Z,19.45
2022-08-24T05:25:24.200Z,19.49
2022-08-24T05:27:52.547Z,19.60
2022-08-24T05:30:21.473Z,19.67
2022-08-24T05:32:49.881Z,19.80
2022-08-24T05:35:18.323Z,19.93
2022-08-24T05:37:46.549Z,20.12
2022-08-24T05:40:19.951Z,20.31
2022-08-24T05:42:51.614Z,20.48
2022-08-24T05:45:20.364Z,20.56
2022-08-24T05:47:51.086Z,20.66
2022-08-24T05:50:37.882Z,20.71
2022-08-24T05:53:10.932Z,21.05
2022-08-24T05:55:40.949Z,21.20
2022-08-24T05:58:11.004Z,21.28
2022-08-24T06:00:46.757Z,21.36
2022-08-24T06:03:15.153Z,21.50
2022-08-24T06:05:49.912Z,21.58
2022-08-24T06:08:18.147Z,21.67
2022-08-24T06:10:48.075Z,21.85
2022-08-24T06:13:17.283Z,22.07
2022-08-24T06:15:54.926Z,22.22
2022-08-24T06:18:34.500Z,22.21
2022-08-24T06:21:11.040Z,22.36
2022-08-24T06:23:44.076Z,22.60
2022-08-24T06:26:32.726Z,23.96
2022-08-24T06:29:01.168Z,27.56
2022-08-24T06:31:29.932Z,29.66
2022-08-24T06:34:12.716Z,30.58
2022-08-24T06:36:41.485Z,30.49
2022-08-24T06:39:12.022Z,29.97
2022-08-24T06:41:45.496Z,29.08
2022-08-24T06:44:20.801Z,28.31
2022-08-24T06:46:56.588Z,27.83
2022-08-24T06:49:24.889Z,27.83
2022-08-24T06:51:53.355Z,28.00
2022-08-24T06:54:21.607Z,28.00
2022-08-24T06:56:50.261Z,28.28
2022-08-24T06:59:19.059Z,28.68
2022-08-24T07:01:47.403Z,29.84
2022-08-24T07:04:15.968Z,31.54
2022-08-24T07:07:02.750Z,33.41
2022-08-24T07:09:32.769Z,33.61
2022-08-24T07:12:01.786Z,33.82
2022-08-24T07:14:34.705Z,35.03
2022-08-24T07:17:03.883Z,35.95
2022-08-24T07:19:33.275Z,35.46
2022-08-24T07:22:02.346Z,34.49
2022-08-24T07:24:30.572Z,33.44
2022-08-24T07:26:58.820Z,33.04
2022-08-24T07:29:48.554Z,33.02
2022-08-24T07:32:17.636Z,33.06
2022-08-24T07:34:47.133Z,32.50
2022-08-24T07:37:15.472Z,31.96
2022-08-24T07:39:47.869Z,32.10
2022-08-24T07:42:26.895Z,31.53
2022-08-24T07:45:00.491Z,31.38
2022-08-24T07:47:42.335Z,31.59
2022-08-24T07:50:27.343Z,32.13
2022-08-24T07:52:56.036Z,32.85
2022-08-24T07:55:24.480Z,34.41
2022-08-24T07:57:52.838Z,36.11
2022-08-24T08:00:22.711Z,37.25
2022-08-24T08:02:56.923Z,36.95
2022-08-24T08:05:25.719Z,36.41
2022-08-24T08:07:55.487Z,36.59
2022-08-24T08:10:23.810Z,37.55
2022-08-24T08:12:53.935Z,37.24
2022-08-24T08:15:22.129Z,36.58
2022-08-24T08:18:02.948Z,35.15
2022-08-24T08:20:32.461Z,34.99
2022-08-24T08:23:20.413Z,35.16
2022-08-24T08:26:20.303Z,35.55
2022-08-24T08:29:03.331Z,35.86
2022-08-24T08:31:34.255Z,34.59
2022-08-24T08:34:05.150Z,33.86
2022-08-24T08:36:34.346Z,33.09
2022-08-24T08:39:03.842Z,32.09
2022-08-24T08:42:03.615Z,31.01
2022-08-24T08:45:05.555Z,31.09
2022-08-24T08:47:52.379Z,31.07
2022-08-24T08:51:03.230Z,31.18
2022-08-24T08:53:47.531Z,31.20
2022-08-24T08:56:57.233Z,31.37
2022-08-24T08:59:53.191Z,31.61
2022-08-24T09:02:45.814Z,32.16
2022-08-24T09:05:36.827Z,31.97
2022-08-24T09:08:33.017Z,31.45
2022-08-24T09:11:25.607Z,31.62
2022-08-24T09:14:14.018Z,31.56
2022-08-24T09:16:51.019Z,31.54
2022-08-24T09:19:43.781Z,31.44
2022-08-24T09:22:16.791Z,31.52
2022-08-24T09:25:06.113Z,31.40
2022-08-24T09:28:07.384Z,31.50
2022-08-24T09:31:13.249Z,31.57
2022-08-24T09:34:07.995Z,31.45
2022-08-24T09:37:00.716Z,30.62
2022-08-24T09:39:38.001Z,30.42
2022-08-24T09:42:40.017Z,30.64
2022-08-24T09:45:25.394Z,31.03
2022-08-24T09:48:15.945Z,30.73
2022-08-24T09:51:08.768Z,30.27
2022-08-24T09:54:24.173Z,30.30
2022-08-24T09:57:19.881Z,30.53
2022-08-24T09:59:59.989Z,30.84
2022-08-24T10:02:59.427Z,30.70
2022-08-24T10:05:37.124Z,30.66
2022-08-24T10:08:13.596Z,30.93
2022-08-24T10:10:44.526Z,31.02
2022-08-24T10:13:51.888Z,30.93
2022-08-24T10:16:33.328Z,30.89
2022-08-24T10:19:16.402Z,31.00
2022-08-24T10:22:04.779Z,30.75
2022-08-24T10:24:51.927Z,30.80
2022-08-24T10:27:42.109Z,30.88
2022-08-24T10:30:34.946Z,30.73
2022-08-24T10:33:24.071Z,30.98
2022-08-24T10:36:10.608Z,30.63
2022-08-24T10:39:25.542Z,30.74
2022-08-24T10:42:46.560Z,30.97
2022-08-24T10:45:40.478Z,31.20
2022-08-24T10:48:33.172Z,31.34
2022-08-24T10:51:21.330Z,31.36
2022-08-24T10:53:52.441Z,31.37
2022-08-24T10:56:47.312Z,31.41
2022-08-24T10:59:33.894Z,31.24
2022-08-24T11:02:12.765Z,31.09
2022-08-24T11:04:41.720Z,31.16
2022-08-24T11:07:17.531Z,31.26
2022-08-24T11:10:01.052Z,31.46
2022-08-24T11:12:36.524Z,31.67
2022-08-24T11:15:28.101Z,31.91
2022-08-24T11:18:00.669Z,32.09
2022-08-24T11:20:44.664Z,32.17
2022-08-24T11:23:19.204Z,32.28
2022-08-24T11:26:03.648Z,32.53
2022-08-24T11:28:46.857Z,32.79
2022-08-24T11:31:22.433Z,32.72
2022-08-24T11:33:58.559Z,32.66
2022-08-24T11:36:32.197Z,32.69
2022-08-24T11:39:36.518Z,32.09
2022-08-24T11:42:18.886Z,31.87
2022-08-24T11:44:59.512Z,31.86
2022-08-24T11:47:56.200Z,31.99
2022-08-24T11:50:44.544Z,32.11
2022-08-24T11:53:28.219Z,32.41
2022-08-24T11:56:02.291Z,32.67
2022-08-24T11:58:43.699Z,32.84
2022-08-24T12:01:42.776Z,33.30
2022-08-24T12:04:24.681Z,33.62
2022-08-24T12:07:00.845Z,33.42
2022-08-24T12:09:37.600Z,33.39
2022-08-24T12:12:08.842Z,33.60
2022-08-24T12:14:46.936Z,33.14
2022-08-24T12:17:33.779Z,32.92
2022-08-24T12:20:48.152Z,33.39
2022-08-24T12:24:00.282Z,33.48
2022-08-24T12:26:40.784Z,33.64
2022-08-24T12:29:20.710Z,34.07
2022-08-24T12:31:58.237Z,34.13
2022-08-24T12:34:53.525Z,33.97
2022-08-24T12:37:44.210Z,33.88
2022-08-24T12:40:40.163Z,33.50
2022-08-24T12:43:09.977Z,33.43
2022-08-24T12:45:38.413Z,33.55
2022-08-24T12:48:29.417Z,33.73
2022-08-24T12:51:06.672Z,33.77
2022-08-24T12:54:06.897Z,34.23
2022-08-24T12:57:04.778Z,33.87
2022-08-24T12:59:49.519Z,34.13
2022-08-24T13:02:17.671Z,34.39
2022-08-24T13:04:57.759Z,34.44
2022-08-24T13:07:31.776Z,33.28
2022-08-24T13:10:09.627Z,33.63
2022-08-24T13:12:43.758Z,33.73
2022-08-24T13:15:32.166Z,34.08
2022-08-24T13:18:10.147Z,34.01
2022-08-24T13:20:44.791Z,34.27
2022-08-24T13:23:18.922Z,34.15
2022-08-24T13:26:08.409Z,34.06
2022-08-24T13:28:45.108Z,34.45
2022-08-24T13:31:31.862Z,34.39
2022-08-24T13:34:00.730Z,34.53
2022-08-24T13:36:32.496Z,34.33
2022-08-24T13:39:12.535Z,34.74
2022-08-24T13:42:13.042Z,34.89
2022-08-24T13:45:17.985Z,34.63
2022-08-24T13:48:22.924Z,34.87
2022-08-24T13:51:07.242Z,35.44
2022-08-24T13:53:58.451Z,34.82
2022-08-24T13:57:07.550Z,35.23
2022-08-24T14:00:13.034Z,34.02
2022-08-24T14:03:01.756Z,34.02
2022-08-24T14:06:05.348Z,34.30
2022-08-24T14:08:58.377Z,34.47
2022-08-24T14:11:32.328Z,34.52
2022-08-24T14:14:23.994Z,34.33
2022-08-24T14:17:54.086Z,33.94
2022-08-24T14:20:51.137Z,33.56
2022-08-24T14:23:47.087Z,33.28
2022-08-24T14:26:33.734Z,32.88
2022-08-24T14:29:17.720Z,32.56
2022-08-24T14:31:58.507Z,32.26
2022-08-24T14:34:55.142Z,32.03
2022-08-24T14:37:56.136Z,31.69
2022-08-24T14:40:37.369Z,31.71
2022-08-24T14:43:08.648Z,31.54
2022-08-24T14:46:04.063Z,31.34
2022-08-24T14:49:27.251Z,31.18
2022-08-24T14:52:27.095Z,30.89
2022-08-24T14:55:11.183Z,30.87
2022-08-24T14:58:15.670Z,30.92
2022-08-24T15:00:48.862Z,30.66
2022-08-24T15:03:49.464Z,30.56
2022-08-24T15:06:39.647Z,30.51
2022-08-24T15:09:07.977Z,30.37
2022-08-24T15:11:39.460Z,30.39
2022-08-24T15:14:47.917Z,30.31
2022-08-24T15:17:35.308Z,30.11
2022-08-24T15:20:33.232Z,30.03
2022-08-24T15:23:13.496Z,29.92
2022-08-24T15:25:55.082Z,29.79
2022-08-24T15:28:32.449Z,29.89
2022-08-24T15:31:10.708Z,29.94
2022-08-24T15:34:04.294Z,30.03
2022-08-24T15:36:33.980Z,30.01
2022-08-24T15:39:05.644Z,29.99
2022-08-24T15:41:39.420Z,29.98
2022-08-24T15:44:21.423Z,29.91
2022-08-24T15:47:04.405Z,29.82
2022-08-24T15:49:46.818Z,29.73
2022-08-24T15:52:45.095Z,29.70
2022-08-24T15:55:32.911Z,29.62
2022-08-24T15:58:24.460Z,29.56
2022-08-24T16:01:17.291Z,29.48
2022-08-24T16:03:57.730Z,29.57
2022-08-24T16:06:32.110Z,29.57
2022-08-24T16:09:19.573Z,29.47
2022-08-24T16:12:20.941Z,29.31
2022-08-24T16:14:55.161Z,29.19
2022-08-24T16:17:34.787Z,29.18
2022-08-24T16:20:24.324Z,29.26
2022-08-24T16:23:00.863Z,29.24
2022-08-24T16:25:38.744Z,29.18
2022-08-24T16:28:18.009Z,29.05
2022-08-24T16:31:00.832Z,29.12
2022-08-24T16:33:46.644Z,29.15
2022-08-24T16:36:22.650Z,29.14
2022-08-24T16:38:52.056Z,29.05
2022-08-24T16:41:24.220Z,29.19
2022-08-24T16:43:52.650Z,29.14
2022-08-24T16:46:23.129Z,29.14
2022-08-24T16:48:56.627Z,29.02
2022-08-24T16:51:24.937Z,28.95
2022-08-24T16:53:53.834Z,28.97
2022-08-24T16:56:27.054Z,28.97
2022-08-24T16:58:55.417Z,28.98
2022-08-24T17:01:24.741Z,28.83
2022-08-24T17:03:53.284Z,28.83
2022-08-24T17:06:22.213Z,28.85
2022-08-24T17:08:50.633Z,28.85
2022-08-24T17:11:19.579Z,28.77
2022-08-24T17:13:50.543Z,28.67
2022-08-24T17:16:21.325Z,28.55
2022-08-24T17:18:49.824Z,28.49
2022-08-24T17:21:18.676Z,28.51
2022-08-24T17:23:47.218Z,28.41
2022-08-24T17:26:20.439Z,28.26
2022-08-24T17:28:52.589Z,28.13
2022-08-24T17:31:21.452Z,28.00
2022-08-24T17:33:50.067Z,27.87
2022-08-24T17:36:21.536Z,27.76
2022-08-24T17:38:55.806Z,27.66
2022-08-24T17:41:25.852Z,27.56
2022-08-24T17:43:54.127Z,27.46
2022-08-24T17:46:23.058Z,27.38
2022-08-24T17:48:51.687Z,27.27
2022-08-24T17:51:20.093Z,27.18
2022-08-24T17:53:48.386Z,27.10
2022-08-24T17:56:17.019Z,27.02
2022-08-24T17:59:04.111Z,26.90
2022-08-24T18:01:32.796Z,26.83
2022-08-24T18:04:03.613Z,26.70
2022-08-24T18:06:32.304Z,26.58
2022-08-24T18:09:05.570Z,26.46
2022-08-24T18:11:34.155Z,26.37
2022-08-24T18:14:02.558Z,26.26
2022-08-24T18:16:32.187Z,26.15
2022-08-24T18:19:00.704Z,26.07
2022-08-24T18:21:28.956Z,25.95
2022-08-24T18:23:58.248Z,25.85
2022-08-24T18:26:28.968Z,25.71
2022-08-24T18:29:00.437Z,25.59
2022-08-24T18:31:31.597Z,25.48
2022-08-24T18:33:59.942Z,25.41
2022-08-24T18:36:28.549Z,25.34
2022-08-24T18:39:03.779Z,25.29
2022-08-24T18:41:38.064Z,25.23
2022-08-24T18:44:08.023Z,25.19
2022-08-24T18:46:41.819Z,25.10
2022-08-24T18:49:10.123Z,25.05
2022-08-24T18:51:38.629Z,24.96
2022-08-24T18:54:14.704Z,24.87
2022-08-24T18:56:44.288Z,24.80
2022-08-24T18:59:15.205Z,24.76
2022-08-24T19:02:05.158Z,24.72
2022-08-24T19:04:36.372Z,24.68
2022-08-24T19:07:04.612Z,24.67
2022-08-24T19:09:34.487Z,24.68
2022-08-24T19:12:04.776Z,24.67
2022-08-24T19:14:34.124Z,24.68
2022-08-24T19:17:02.851Z,24.64
2022-08-24T19:19:33.211Z,24.59
2022-08-24T19:22:02.780Z,24.57
2022-08-24T19:24:32.484Z,24.53
2022-08-24T19:27:02.469Z,24.45
2022-08-24T19:29:54.676Z,24.40
2022-08-24T19:32:28.287Z,24.29
2022-08-24T19:34:58.663Z,24.21
2022-08-24T19:37:27.346Z,24.13
2022-08-24T19:39:55.645Z,24.08
2022-08-24T19:42:25.493Z,24.04
2022-08-24T19:45:18.332Z,23.99
2022-08-24T19:47:46.743Z,23.91
2022-08-24T19:50:20.274Z,23.84
2022-08-24T19:52:49.792Z,23.78
2022-08-24T19:55:18.026Z,23.73
2022-08-24T19:57:54.281Z,23.70
2022-08-24T20:00:33.613Z,23.64
2022-08-24T20:03:04.638Z,23.60
2022-08-24T20:05:33.314Z,23.57
2022-08-24T20:08:03.562Z,23.56
2022-08-24T20:10:33.693Z,23.52
2022-08-24T20:13:02.270Z,23.50
2022-08-24T20:15:30.791Z,23.46
2022-08-24T20:17:59.397Z,23.44
2022-08-24T20:20:30.104Z,23.43
2022-08-24T20:23:03.128Z,23.40
2022-08-24T20:25:32.212Z,23.42
2022-08-24T20:28:27.829Z,23.38
2022-08-24T20:30:51.601Z,23.34
2022-08-24T20:33:27.978Z,23.29
2022-08-24T20:35:57.351Z,23.27
2022-08-24T20:38:31.720Z,23.27
2022-08-24T20:41:01.113Z,23.26
2022-08-24T20:43:29.742Z,23.24
2022-08-24T20:45:58.160Z,23.21
2022-08-24T20:48:30.434Z,23.19
2022-08-24T20:50:59.379Z,23.16
2022-08-24T20:53:27.672Z,23.14
2022-08-24T20:55:57.771Z,23.13
2022-08-24T20:58:26.599Z,23.08
2022-08-24T21:00:54.952Z,23.08
2022-08-24T21:03:23.169Z,23.02
2022-08-24T21:05:52.567Z,23.00
2022-08-24T21:08:21.049Z,23.02
2022-08-24T21:10:49.243Z,22.99
2022-08-24T21:13:18.294Z,22.98
2022-08-24T21:15:46.842Z,22.97
2022-08-24T21:18:15.659Z,22.95
2022-08-24T21:20:44.804Z,22.93
2022-08-24T21:23:33.437Z,22.87
2022-08-24T21:26:07.663Z,22.81
2022-08-24T21:28:38.653Z,22.77
2022-08-24T21:31:06.869Z,22.75
2022-08-24T21:33:53.821Z,22.73
2022-08-24T21:36:25.421Z,22.71
2022-08-24T21:38:54.902Z,22.69
2022-08-24T21:41:23.462Z,22.71
2022-08-24T21:43:52.612Z,22.66
2022-08-24T21:46:27.130Z,22.70
2022-08-24T21:48:55.375Z,22.72
2022-08-24T21:51:23.733Z,22.73
2022-08-24T21:53:51.951Z,22.72
2022-08-24T21:56:32.012Z,22.68
2022-08-24T21:59:00.800Z,22.65
2022-08-24T22:01:29.360Z,22.64
2022-08-24T22:04:01.484Z,22.60
2022-08-24T22:06:31.804Z,22.59
2022-08-24T22:09:01.641Z,22.55
2022-08-24T22:11:31.100Z,22.56
2022-08-24T22:14:00.842Z,22.53
2022-08-24T22:16:29.612Z,22.52
2022-08-24T22:18:58.811Z,22.51
2022-08-24T22:21:30.535Z,22.47
2022-08-24T22:23:59.522Z,22.41
2022-08-24T22:26:30.225Z,22.42
2022-08-24T22:28:59.783Z,22.31
2022-08-24T22:31:31.136Z,22.21
2022-08-24T22:34:07.104Z,22.10
2022-08-24T22:36:35.976Z,22.04
2022-08-24T22:39:05.675Z,21.96
2022-08-24T22:41:34.282Z,21.93
2022-08-24T22:44:21.736Z,21.90
2022-08-24T22:46:59.206Z,21.87
2022-08-24T22:49:32.751Z,21.93
2022-08-24T22:52:01.051Z,21.96
2022-08-24T22:54:29.962Z,21.96
2022-08-24T22:56:58.575Z,21.94
2022-08-24T22:59:29.300Z,21.84
2022-08-24T23:01:58.050Z,21.80
2022-08-24T23:04:30.158Z,21.79
2022-08-24T23:07:00.760Z,21.80
2022-08-24T23:09:29.374Z,21.87
2022-08-24T23:12:16.251Z,21.95
2022-08-24T23:14:44.687Z,22.01
2022-08-24T23:17:13.060Z,21.98
2022-08-24T23:20:00.044Z,21.96
2022-08-24T23:22:35.307Z,21.95
2022-08-24T23:25:04.238Z,21.95
2022-08-24T23:27:37.667Z,21.90
2022-08-24T23:30:11.536Z,21.86
2022-08-24T23:32:39.932Z,21.77
2022-08-24T23:35:08.963Z,21.76
2022-08-24T23:37:37.231Z,21.77
2022-08-24T23:40:06.143Z,21.73
2022-08-24T23:42:34.482Z,21.68
2022-08-24T23:45:02.936Z,21.66
2022-08-24T23:47:31.112Z,21.66
2022-08-24T23:50:06.829Z,21.57
2022-08-24T23:52:39.738Z,21.47
2022-08-24T23:55:21.547Z,21.31
2022-08-24T23:57:51.920Z,21.08
